Airfield :
LOGIN :

Register | Disclaimer

   EN    FR    IT 

 










Legend :    VFR   Marginal VFR   IFR   Intensive IFR   Very Intensive IFR
Visi :
Ceiling :
>= 8 km
>= 3000ft
5 to 8 km
1000 to 3000 ft
1500m to 5 km
500 to 1000 ft
800 to 1500m
200 to 500 ft
< 800m
< 200 ft
Symbols :   Thunderstorms  Fog  Heavy snow  Heavy precipitations  Wind > 20 kt
SIGMETs :     Misc.  Thunderstorms  Icing  Turbulence  Mountain Waves  Volcanic Ashes






- Airport Elevation : 12 ft
- IATA code : CQF


LFAC - Calais

CURRENT METAR :
  • 141500Z AUTO 26008KT 220V280 CAVOK 13/04 Q1022

EXPIRED METARs :
  • 141430Z AUTO 32007KT CAVOK 13/06 Q1022
  • 141400Z AUTO 34006KT 260V050 9999 SCT041 BKN140 13/07 Q1022
  • 141330Z AUTO 01005KT 320V050 CAVOK 13/07 Q1023
  • 141300Z AUTO 01005KT 330V050 CAVOK 13/06 Q1023
  • 141230Z AUTO 36005KT 300V050 CAVOK 13/06 Q1023
  • 141200Z AUTO 01005KT 320V060 CAVOK 13/05 Q1024
  • 141130Z AUTO 36004KT 320V070 CAVOK 13/06 Q1024
  • 141100Z AUTO 35006KT 310V050 CAVOK 13/05 Q1024
  • 141030Z AUTO 34008KT 300V030 9999 FEW022 BKN130 12/06 Q1025

TAF N/A
ATIS : +33 3 21 00 11 14



MET'MAP, your aeronautical weather chart ! - Copyright ORBIFLY December 2007 - Disclaimer

ORBIFLY MET'MAP TEAM :

Programming & Development : Alexandra Zaïnal
Original concept : Baudouin d'Aumeries
Technical & hardware support : Manuel Goepfert
Assistance : Marc-Olivier Méhu




SOURCES & CREDITS :

   NOAA